sensor_id;sensor_type;location;lat;lon;timestamp;temperature;humidity
68485;DHT22;55472;50.060;21.960;2023-05-10T00:02:15;5.00;70.50
68485;DHT22;55472;50.060;21.960;2023-05-10T00:04:41;5.00;70.50
68485;DHT22;55472;50.060;21.960;2023-05-10T00:07:07;5.00;70.70
68485;DHT22;55472;50.060;21.960;2023-05-10T00:09:33;5.00;70.50
68485;DHT22;55472;50.060;21.960;2023-05-10T00:11:59;5.00;70.60
68485;DHT22;55472;50.060;21.960;2023-05-10T00:14:26;5.00;70.70
68485;DHT22;55472;50.060;21.960;2023-05-10T00:16:52;5.00;71.00
68485;DHT22;55472;50.060;21.960;2023-05-10T00:19:18;5.00;71.00
68485;DHT22;55472;50.060;21.960;2023-05-10T00:21:44;5.00;71.10
68485;DHT22;55472;50.060;21.960;2023-05-10T00:24:10;5.00;70.80
68485;DHT22;55472;50.060;21.960;2023-05-10T00:26:36;5.00;70.90
68485;DHT22;55472;50.060;21.960;2023-05-10T00:29:02;5.00;70.80
68485;DHT22;55472;50.060;21.960;2023-05-10T00:31:28;4.90;70.80
68485;DHT22;55472;50.060;21.960;2023-05-10T00:33:55;4.90;70.90
68485;DHT22;55472;50.060;21.960;2023-05-10T00:36:21;4.80;71.10
68485;DHT22;55472;50.060;21.960;2023-05-10T00:38:47;4.70;71.30
68485;DHT22;55472;50.060;21.960;2023-05-10T00:41:13;4.70;71.40
68485;DHT22;55472;50.060;21.960;2023-05-10T00:43:39;4.70;71.60
68485;DHT22;55472;50.060;21.960;2023-05-10T00:46:06;4.60;72.20
68485;DHT22;55472;50.060;21.960;2023-05-10T00:48:32;4.60;72.70
68485;DHT22;55472;50.060;21.960;2023-05-10T00:50:59;4.60;72.70
68485;DHT22;55472;50.060;21.960;2023-05-10T00:53:27;4.60;72.70
68485;DHT22;55472;50.060;21.960;2023-05-10T00:55:53;4.60;72.70
68485;DHT22;55472;50.060;21.960;2023-05-10T00:58:19;4.60;72.80
68485;DHT22;55472;50.060;21.960;2023-05-10T01:03:21;4.60;72.60
68485;DHT22;55472;50.060;21.960;2023-05-10T01:05:47;4.60;72.70
68485;DHT22;55472;50.060;21.960;2023-05-10T01:08:13;4.50;72.60
68485;DHT22;55472;50.060;21.960;2023-05-10T01:10:40;4.50;72.80
68485;DHT22;55472;50.060;21.960;2023-05-10T01:13:07;4.50;72.90
68485;DHT22;55472;50.060;21.960;2023-05-10T01:15:34;4.50;72.90
68485;DHT22;55472;50.060;21.960;2023-05-10T01:18:00;4.40;72.90
68485;DHT22;55472;50.060;21.960;2023-05-10T01:20:32;4.40;73.30
68485;DHT22;55472;50.060;21.960;2023-05-10T01:29:18;4.30;73.30
68485;DHT22;55472;50.060;21.960;2023-05-10T01:35:06;4.20;73.20
68485;DHT22;55472;50.060;21.960;2023-05-10T01:37:42;4.10;73.60
68485;DHT22;55472;50.060;21.960;2023-05-10T01:40:23;4.10;73.80
68485;DHT22;55472;50.060;21.960;2023-05-10T01:42:56;4.00;74.20
68485;DHT22;55472;50.060;21.960;2023-05-10T01:45:46;4.00;74.20
68485;DHT22;55472;50.060;21.960;2023-05-10T01:48:18;4.00;74.40
68485;DHT22;55472;50.060;21.960;2023-05-10T01:50:46;4.00;74.50
68485;DHT22;55472;50.060;21.960;2023-05-10T01:53:18;3.90;74.50
68485;DHT22;55472;50.060;21.960;2023-05-10T01:55:53;3.90;74.50
68485;DHT22;55472;50.060;21.960;2023-05-10T01:58:27;3.90;74.80
68485;DHT22;55472;50.060;21.960;2023-05-10T02:00:55;3.80;74.80
68485;DHT22;55472;50.060;21.960;2023-05-10T02:03:26;3.80;75.40
68485;DHT22;55472;50.060;21.960;2023-05-10T02:05:54;3.80;76.00
68485;DHT22;55472;50.060;21.960;2023-05-10T02:08:22;3.80;76.10
68485;DHT22;55472;50.060;21.960;2023-05-10T02:10:50;3.80;75.90
68485;DHT22;55472;50.060;21.960;2023-05-10T02:13:18;3.80;75.70
68485;DHT22;55472;50.060;21.960;2023-05-10T02:15:48;3.70;75.60
68485;DHT22;55472;50.060;21.960;2023-05-10T02:18:15;3.70;75.50
68485;DHT22;55472;50.060;21.960;2023-05-10T02:20:43;3.70;75.80
68485;DHT22;55472;50.060;21.960;2023-05-10T02:23:12;3.70;75.90
68485;DHT22;55472;50.060;21.960;2023-05-10T02:25:39;3.70;75.70
68485;DHT22;55472;50.060;21.960;2023-05-10T02:28:07;3.60;75.90
68485;DHT22;55472;50.060;21.960;2023-05-10T02:30:35;3.60;76.20
68485;DHT22;55472;50.060;21.960;2023-05-10T02:33:04;3.60;76.20
68485;DHT22;55472;50.060;21.960;2023-05-10T02:35:31;3.60;76.40
68485;DHT22;55472;50.060;21.960;2023-05-10T02:38:00;3.60;76.90
68485;DHT22;55472;50.060;21.960;2023-05-10T02:40:27;3.60;77.40
68485;DHT22;55472;50.060;21.960;2023-05-10T02:42:56;3.50;77.80
68485;DHT22;55472;50.060;21.960;2023-05-10T02:45:25;3.60;77.70
68485;DHT22;55472;50.060;21.960;2023-05-10T02:47:54;3.50;77.90
68485;DHT22;55472;50.060;21.960;2023-05-10T02:50:22;3.50;77.90
68485;DHT22;55472;50.060;21.960;2023-05-10T02:52:55;3.50;78.00
68485;DHT22;55472;50.060;21.960;2023-05-10T02:55:29;3.50;78.00
68485;DHT22;55472;50.060;21.960;2023-05-10T02:58:00;3.50;78.10
68485;DHT22;55472;50.060;21.960;2023-05-10T03:00:27;3.50;78.00
68485;DHT22;55472;50.060;21.960;2023-05-10T03:02:54;3.50;77.90
68485;DHT22;55472;50.060;21.960;2023-05-10T03:05:20;3.50;77.80
68485;DHT22;55472;50.060;21.960;2023-05-10T03:07:47;3.40;77.50
68485;DHT22;55472;50.060;21.960;2023-05-10T03:10:14;3.50;77.40
68485;DHT22;55472;50.060;21.960;2023-05-10T03:18:01;3.40;77.40
68485;DHT22;55472;50.060;21.960;2023-05-10T03:20:49;3.30;78.10
68485;DHT22;55472;50.060;21.960;2023-05-10T03:23:26;3.30;78.50
68485;DHT22;55472;50.060;21.960;2023-05-10T03:25:53;3.30;78.80
68485;DHT22;55472;50.060;21.960;2023-05-10T03:28:21;3.30;78.90
68485;DHT22;55472;50.060;21.960;2023-05-10T03:30:47;3.30;79.20
68485;DHT22;55472;50.060;21.960;2023-05-10T03:33:14;3.30;79.50
68485;DHT22;55472;50.060;21.960;2023-05-10T03:35:40;3.30;79.70
68485;DHT22;55472;50.060;21.960;2023-05-10T03:38:06;3.30;79.50
68485;DHT22;55472;50.060;21.960;2023-05-10T03:40:32;3.30;79.40
68485;DHT22;55472;50.060;21.960;2023-05-10T03:42:59;3.40;79.40
68485;DHT22;55472;50.060;21.960;2023-05-10T03:45:25;3.40;79.30
68485;DHT22;55472;50.060;21.960;2023-05-10T03:47:52;3.30;79.50
68485;DHT22;55472;50.060;21.960;2023-05-10T03:50:18;3.40;79.70
68485;DHT22;55472;50.060;21.960;2023-05-10T03:52:44;3.40;79.50
68485;DHT22;55472;50.060;21.960;2023-05-10T03:55:10;3.50;79.30
68485;DHT22;55472;50.060;21.960;2023-05-10T03:57:37;3.50;79.60
68485;DHT22;55472;50.060;21.960;2023-05-10T04:00:04;3.50;79.50
68485;DHT22;55472;50.060;21.960;2023-05-10T04:02:31;3.60;79.80
68485;DHT22;55472;50.060;21.960;2023-05-10T04:04:57;3.60;79.30
68485;DHT22;55472;50.060;21.960;2023-05-10T04:07:23;3.70;79.70
68485;DHT22;55472;50.060;21.960;2023-05-10T04:09:49;3.70;79.70
68485;DHT22;55472;50.060;21.960;2023-05-10T04:12:15;3.80;79.90
68485;DHT22;55472;50.060;21.960;2023-05-10T04:14:41;3.80;79.80
68485;DHT22;55472;50.060;21.960;2023-05-10T04:17:08;3.90;79.70
68485;DHT22;55472;50.060;21.960;2023-05-10T04:19:35;4.00;79.30
68485;DHT22;55472;50.060;21.960;2023-05-10T04:22:02;4.10;79.20
68485;DHT22;55472;50.060;21.960;2023-05-10T04:24:28;4.20;79.10
68485;DHT22;55472;50.060;21.960;2023-05-10T04:26:55;4.20;78.80
68485;DHT22;55472;50.060;21.960;2023-05-10T04:29:21;4.40;78.80
68485;DHT22;55472;50.060;21.960;2023-05-10T04:31:47;4.40;78.60
68485;DHT22;55472;50.060;21.960;2023-05-10T04:34:14;4.60;78.30
68485;DHT22;55472;50.060;21.960;2023-05-10T04:36:40;4.70;78.10
68485;DHT22;55472;50.060;21.960;2023-05-10T04:39:06;4.80;77.90
68485;DHT22;55472;50.060;21.960;2023-05-10T04:41:32;4.90;77.30
68485;DHT22;55472;50.060;21.960;2023-05-10T04:43:58;5.00;77.10
68485;DHT22;55472;50.060;21.960;2023-05-10T04:46:25;5.10;76.50
68485;DHT22;55472;50.060;21.960;2023-05-10T04:48:51;5.20;76.10
68485;DHT22;55472;50.060;21.960;2023-05-10T04:51:17;5.30;75.70
68485;DHT22;55472;50.060;21.960;2023-05-10T04:53:43;5.40;75.60
68485;DHT22;55472;50.060;21.960;2023-05-10T04:56:09;5.50;74.90
68485;DHT22;55472;50.060;21.960;2023-05-10T04:58:35;5.70;75.00
68485;DHT22;55472;50.060;21.960;2023-05-10T05:01:08;5.80;73.80
68485;DHT22;55472;50.060;21.960;2023-05-10T05:03:36;5.90;74.10
68485;DHT22;55472;50.060;21.960;2023-05-10T05:06:03;6.00;74.00
68485;DHT22;55472;50.060;21.960;2023-05-10T05:08:29;6.20;73.70
68485;DHT22;55472;50.060;21.960;2023-05-10T05:10:55;6.30;73.60
68485;DHT22;55472;50.060;21.960;2023-05-10T05:13:21;6.50;72.10
68485;DHT22;55472;50.060;21.960;2023-05-10T05:15:47;6.60;72.20
68485;DHT22;55472;50.060;21.960;2023-05-10T05:18:13;6.80;72.10
68485;DHT22;55472;50.060;21.960;2023-05-10T05:20:39;6.90;71.80
68485;DHT22;55472;50.060;21.960;2023-05-10T05:23:06;7.10;70.70
68485;DHT22;55472;50.060;21.960;2023-05-10T05:25:32;7.20;70.70
68485;DHT22;55472;50.060;21.960;2023-05-10T05:27:58;7.30;67.90
68485;DHT22;55472;50.060;21.960;2023-05-10T05:30:24;7.40;68.30
68485;DHT22;55472;50.060;21.960;2023-05-10T05:32:50;7.60;67.60
68485;DHT22;55472;50.060;21.960;2023-05-10T05:35:17;7.70;67.70
68485;DHT22;55472;50.060;21.960;2023-05-10T05:37:43;7.80;67.90
68485;DHT22;55472;50.060;21.960;2023-05-10T05:40:12;8.00;65.50
68485;DHT22;55472;50.060;21.960;2023-05-10T05:42:38;8.10;65.70
68485;DHT22;55472;50.060;21.960;2023-05-10T05:45:05;8.30;66.40
68485;DHT22;55472;50.060;21.960;2023-05-10T05:47:34;8.40;65.20
68485;DHT22;55472;50.060;21.960;2023-05-10T05:50:00;8.60;65.40
68485;DHT22;55472;50.060;21.960;2023-05-10T05:52:26;8.70;66.70
68485;DHT22;55472;50.060;21.960;2023-05-10T05:54:52;8.90;66.20
68485;DHT22;55472;50.060;21.960;2023-05-10T05:57:19;9.10;65.40
68485;DHT22;55472;50.060;21.960;2023-05-10T05:59:45;9.30;64.70
68485;DHT22;55472;50.060;21.960;2023-05-10T06:02:11;9.40;64.50
68485;DHT22;55472;50.060;21.960;2023-05-10T06:04:38;9.60;64.10
68485;DHT22;55472;50.060;21.960;2023-05-10T06:07:04;9.80;63.40
68485;DHT22;55472;50.060;21.960;2023-05-10T06:09:30;9.90;63.10
68485;DHT22;55472;50.060;21.960;2023-05-10T06:11:56;10.00;63.30
68485;DHT22;55472;50.060;21.960;2023-05-10T06:14:22;10.20;62.90
68485;DHT22;55472;50.060;21.960;2023-05-10T06:16:49;10.30;62.40
68485;DHT22;55472;50.060;21.960;2023-05-10T06:19:15;10.60;60.50
68485;DHT22;55472;50.060;21.960;2023-05-10T06:21:41;10.70;59.90
68485;DHT22;55472;50.060;21.960;2023-05-10T06:24:07;10.90;59.90
68485;DHT22;55472;50.060;21.960;2023-05-10T06:26:34;11.10;58.10
68485;DHT22;55472;50.060;21.960;2023-05-10T06:29:00;11.40;57.50
68485;DHT22;55472;50.060;21.960;2023-05-10T06:31:26;11.60;57.00
68485;DHT22;55472;50.060;21.960;2023-05-10T06:33:53;11.80;56.80
68485;DHT22;55472;50.060;21.960;2023-05-10T06:36:19;12.00;51.30
68485;DHT22;55472;50.060;21.960;2023-05-10T06:38:45;12.30;49.40
68485;DHT22;55472;50.060;21.960;2023-05-10T06:41:12;12.30;49.30
68485;DHT22;55472;50.060;21.960;2023-05-10T06:43:38;12.50;51.00
68485;DHT22;55472;50.060;21.960;2023-05-10T06:46:07;12.80;50.70
68485;DHT22;55472;50.060;21.960;2023-05-10T06:48:33;12.90;48.60
68485;DHT22;55472;50.060;21.960;2023-05-10T06:51:00;12.90;49.60
68485;DHT22;55472;50.060;21.960;2023-05-10T06:53:26;13.10;50.50
68485;DHT22;55472;50.060;21.960;2023-05-10T06:55:53;13.30;49.60
68485;DHT22;55472;50.060;21.960;2023-05-10T06:58:19;13.40;49.10
68485;DHT22;55472;50.060;21.960;2023-05-10T07:00:45;13.60;50.20
68485;DHT22;55472;50.060;21.960;2023-05-10T07:03:12;13.80;50.40
68485;DHT22;55472;50.060;21.960;2023-05-10T07:05:38;14.00;50.60
68485;DHT22;55472;50.060;21.960;2023-05-10T07:08:04;14.20;50.70
68485;DHT22;55472;50.060;21.960;2023-05-10T07:10:30;14.30;48.50
68485;DHT22;55472;50.060;21.960;2023-05-10T07:12:56;14.40;50.20
68485;DHT22;55472;50.060;21.960;2023-05-10T07:15:23;14.60;49.50
68485;DHT22;55472;50.060;21.960;2023-05-10T07:17:49;14.70;48.00
68485;DHT22;55472;50.060;21.960;2023-05-10T07:20:15;14.80;49.00
68485;DHT22;55472;50.060;21.960;2023-05-10T07:22:41;15.00;48.80
68485;DHT22;55472;50.060;21.960;2023-05-10T07:25:08;15.20;46.00
68485;DHT22;55472;50.060;21.960;2023-05-10T07:27:34;15.40;46.00
68485;DHT22;55472;50.060;21.960;2023-05-10T07:30:00;15.50;43.90
68485;DHT22;55472;50.060;21.960;2023-05-10T07:32:27;15.50;41.10
68485;DHT22;55472;50.060;21.960;2023-05-10T07:34:53;15.40;43.30
68485;DHT22;55472;50.060;21.960;2023-05-10T07:37:19;15.30;43.60
68485;DHT22;55472;50.060;21.960;2023-05-10T07:39:45;15.40;44.50
68485;DHT22;55472;50.060;21.960;2023-05-10T07:42:11;15.60;44.30
68485;DHT22;55472;50.060;21.960;2023-05-10T07:44:37;15.80;42.90
68485;DHT22;55472;50.060;21.960;2023-05-10T07:47:04;15.90;42.50
68485;DHT22;55472;50.060;21.960;2023-05-10T07:49:30;16.10;42.10
68485;DHT22;55472;50.060;21.960;2023-05-10T07:51:56;16.20;39.80
68485;DHT22;55472;50.060;21.960;2023-05-10T07:54:22;16.10;36.70
68485;DHT22;55472;50.060;21.960;2023-05-10T07:56:50;16.20;40.10
68485;DHT22;55472;50.060;21.960;2023-05-10T07:59:17;16.10;36.70
68485;DHT22;55472;50.060;21.960;2023-05-10T08:01:44;16.20;37.00
68485;DHT22;55472;50.060;21.960;2023-05-10T08:04:10;16.40;37.80
68485;DHT22;55472;50.060;21.960;2023-05-10T08:06:37;16.50;36.10
68485;DHT22;55472;50.060;21.960;2023-05-10T08:09:03;16.60;35.50
68485;DHT22;55472;50.060;21.960;2023-05-10T08:11:29;16.60;35.90
68485;DHT22;55472;50.060;21.960;2023-05-10T08:13:55;16.50;36.30
68485;DHT22;55472;50.060;21.960;2023-05-10T08:16:21;16.50;36.00
68485;DHT22;55472;50.060;21.960;2023-05-10T08:18:48;16.60;36.70
68485;DHT22;55472;50.060;21.960;2023-05-10T08:21:15;16.80;35.70
68485;DHT22;55472;50.060;21.960;2023-05-10T08:23:41;16.90;35.90
68485;DHT22;55472;50.060;21.960;2023-05-10T08:26:09;17.00;36.80
68485;DHT22;55472;50.060;21.960;2023-05-10T08:28:35;16.90;35.60
68485;DHT22;55472;50.060;21.960;2023-05-10T08:31:01;17.00;36.30
68485;DHT22;55472;50.060;21.960;2023-05-10T08:33:28;17.20;35.70
68485;DHT22;55472;50.060;21.960;2023-05-10T08:35:54;17.10;35.90
68485;DHT22;55472;50.060;21.960;2023-05-10T08:38:20;17.20;36.00
68485;DHT22;55472;50.060;21.960;2023-05-10T08:40:48;17.30;36.90
68485;DHT22;55472;50.060;21.960;2023-05-10T08:43:16;17.50;34.80
68485;DHT22;55472;50.060;21.960;2023-05-10T08:45:43;17.50;35.80
68485;DHT22;55472;50.060;21.960;2023-05-10T08:48:14;18.00;36.50
68485;DHT22;55472;50.060;21.960;2023-05-10T08:50:41;18.50;34.30
68485;DHT22;55472;50.060;21.960;2023-05-10T08:53:12;19.00;32.30
68485;DHT22;55472;50.060;21.960;2023-05-10T08:55:40;20.00;31.40
68485;DHT22;55472;50.060;21.960;2023-05-10T08:58:08;20.90;29.20
68485;DHT22;55472;50.060;21.960;2023-05-10T09:00:35;21.70;28.40
68485;DHT22;55472;50.060;21.960;2023-05-10T09:03:04;22.60;27.90
68485;DHT22;55472;50.060;21.960;2023-05-10T09:05:32;23.30;27.70
68485;DHT22;55472;50.060;21.960;2023-05-10T09:07:58;23.80;27.30
68485;DHT22;55472;50.060;21.960;2023-05-10T09:10:26;24.80;25.60
68485;DHT22;55472;50.060;21.960;2023-05-10T09:12:56;25.10;25.10
68485;DHT22;55472;50.060;21.960;2023-05-10T09:15:23;25.50;24.10
68485;DHT22;55472;50.060;21.960;2023-05-10T09:17:49;26.30;23.30
68485;DHT22;55472;50.060;21.960;2023-05-10T09:20:15;27.00;23.80
68485;DHT22;55472;50.060;21.960;2023-05-10T09:22:43;26.40;24.70
68485;DHT22;55472;50.060;21.960;2023-05-10T09:25:11;27.10;24.60
68485;DHT22;55472;50.060;21.960;2023-05-10T09:27:39;26.60;25.90
68485;DHT22;55472;50.060;21.960;2023-05-10T09:30:07;27.80;25.50
68485;DHT22;55472;50.060;21.960;2023-05-10T09:32:42;28.00;25.60
68485;DHT22;55472;50.060;21.960;2023-05-10T09:35:13;28.70;24.50
68485;DHT22;55472;50.060;21.960;2023-05-10T09:37:41;29.10;23.50
68485;DHT22;55472;50.060;21.960;2023-05-10T09:40:28;27.80;23.50
68485;DHT22;55472;50.060;21.960;2023-05-10T09:43:00;25.50;25.10
68485;DHT22;55472;50.060;21.960;2023-05-10T09:45:32;24.60;26.30
68485;DHT22;55472;50.060;21.960;2023-05-10T09:48:01;23.10;28.40
68485;DHT22;55472;50.060;21.960;2023-05-10T09:50:29;21.70;29.00
68485;DHT22;55472;50.060;21.960;2023-05-10T09:52:58;20.00;30.70
68485;DHT22;55472;50.060;21.960;2023-05-10T09:55:41;19.80;32.70
68485;DHT22;55472;50.060;21.960;2023-05-10T09:58:10;21.10;31.60
68485;DHT22;55472;50.060;21.960;2023-05-10T10:00:39;22.10;30.10
68485;DHT22;55472;50.060;21.960;2023-05-10T10:03:15;22.00;29.30
68485;DHT22;55472;50.060;21.960;2023-05-10T10:05:46;21.20;29.70
68485;DHT22;55472;50.060;21.960;2023-05-10T10:08:14;21.00;31.10
68485;DHT22;55472;50.060;21.960;2023-05-10T10:10:41;20.30;30.30
68485;DHT22;55472;50.060;21.960;2023-05-10T10:13:10;20.20;32.00
68485;DHT22;55472;50.060;21.960;2023-05-10T10:15:36;20.40;32.20
68485;DHT22;55472;50.060;21.960;2023-05-10T10:18:03;20.20;31.90
68485;DHT22;55472;50.060;21.960;2023-05-10T10:20:31;20.40;32.50
68485;DHT22;55472;50.060;21.960;2023-05-10T10:22:58;20.20;31.70
68485;DHT22;55472;50.060;21.960;2023-05-10T10:25:24;19.90;31.80
68485;DHT22;55472;50.060;21.960;2023-05-10T10:30:43;19.10;33.20
68485;DHT22;55472;50.060;21.960;2023-05-10T10:36:29;19.50;32.20
68485;DHT22;55472;50.060;21.960;2023-05-10T10:39:09;19.70;32.10
68485;DHT22;55472;50.060;21.960;2023-05-10T10:41:41;19.10;32.50
68485;DHT22;55472;50.060;21.960;2023-05-10T10:47:04;18.90;32.50
68485;DHT22;55472;50.060;21.960;2023-05-10T10:52:53;18.20;33.50
68485;DHT22;55472;50.060;21.960;2023-05-10T10:55:20;18.10;33.20
68485;DHT22;55472;50.060;21.960;2023-05-10T10:57:53;18.40;33.80
68485;DHT22;55472;50.060;21.960;2023-05-10T11:00:35;18.60;33.20
68485;DHT22;55472;50.060;21.960;2023-05-10T11:03:12;18.50;34.60
68485;DHT22;55472;50.060;21.960;2023-05-10T11:05:48;18.80;34.20
68485;DHT22;55472;50.060;21.960;2023-05-10T11:08:18;19.00;33.70
68485;DHT22;55472;50.060;21.960;2023-05-10T11:11:03;18.40;33.00
68485;DHT22;55472;50.060;21.960;2023-05-10T11:13:45;18.20;33.50
68485;DHT22;55472;50.060;21.960;2023-05-10T11:16:14;18.00;33.80
68485;DHT22;55472;50.060;21.960;2023-05-10T11:19:03;17.90;35.20
68485;DHT22;55472;50.060;21.960;2023-05-10T11:21:32;17.90;34.30
68485;DHT22;55472;50.060;21.960;2023-05-10T11:23:59;18.10;33.90
68485;DHT22;55472;50.060;21.960;2023-05-10T11:26:31;18.20;34.50
68485;DHT22;55472;50.060;21.960;2023-05-10T11:28:59;18.00;33.50
68485;DHT22;55472;50.060;21.960;2023-05-10T11:31:28;18.10;34.50
68485;DHT22;55472;50.060;21.960;2023-05-10T11:33:58;18.50;35.30
68485;DHT22;55472;50.060;21.960;2023-05-10T11:36:29;18.20;31.60
68485;DHT22;55472;50.060;21.960;2023-05-10T11:39:01;18.00;31.30
68485;DHT22;55472;50.060;21.960;2023-05-10T11:41:30;18.00;31.50
68485;DHT22;55472;50.060;21.960;2023-05-10T11:43:58;17.80;30.40
68485;DHT22;55472;50.060;21.960;2023-05-10T11:46:26;17.90;30.00
68485;DHT22;55472;50.060;21.960;2023-05-10T11:49:00;17.70;30.50
68485;DHT22;55472;50.060;21.960;2023-05-10T11:51:27;17.70;31.30
68485;DHT22;55472;50.060;21.960;2023-05-10T11:53:54;17.80;30.40
68485;DHT22;55472;50.060;21.960;2023-05-10T11:56:22;17.90;32.20
68485;DHT22;55472;50.060;21.960;2023-05-10T11:58:56;17.90;32.60
68485;DHT22;55472;50.060;21.960;2023-05-10T12:01:24;18.00;33.40
68485;DHT22;55472;50.060;21.960;2023-05-10T12:03:53;18.20;35.00
68485;DHT22;55472;50.060;21.960;2023-05-10T12:06:20;18.40;33.10
68485;DHT22;55472;50.060;21.960;2023-05-10T12:08:48;18.10;30.90
68485;DHT22;55472;50.060;21.960;2023-05-10T12:11:19;18.10;29.80
68485;DHT22;55472;50.060;21.960;2023-05-10T12:13:47;17.60;30.70
68485;DHT22;55472;50.060;21.960;2023-05-10T12:16:28;17.60;32.20
68485;DHT22;55472;50.060;21.960;2023-05-10T12:18:57;17.80;31.40
68485;DHT22;55472;50.060;21.960;2023-05-10T12:21:25;17.70;34.50
68485;DHT22;55472;50.060;21.960;2023-05-10T12:23:59;17.70;34.70
68485;DHT22;55472;50.060;21.960;2023-05-10T12:26:28;17.60;34.70
68485;DHT22;55472;50.060;21.960;2023-05-10T12:28:55;17.60;35.40
68485;DHT22;55472;50.060;21.960;2023-05-10T12:31:21;17.50;34.90
68485;DHT22;55472;50.060;21.960;2023-05-10T12:33:47;17.50;35.40
68485;DHT22;55472;50.060;21.960;2023-05-10T12:36:16;17.60;36.30
68485;DHT22;55472;50.060;21.960;2023-05-10T12:38:45;17.70;35.70
68485;DHT22;55472;50.060;21.960;2023-05-10T12:41:18;17.60;35.60
68485;DHT22;55472;50.060;21.960;2023-05-10T12:43:44;17.60;35.30
68485;DHT22;55472;50.060;21.960;2023-05-10T12:46:16;17.70;33.20
68485;DHT22;55472;50.060;21.960;2023-05-10T12:48:44;17.60;34.30
68485;DHT22;55472;50.060;21.960;2023-05-10T12:51:18;17.70;34.30
68485;DHT22;55472;50.060;21.960;2023-05-10T12:53:47;17.60;35.00
68485;DHT22;55472;50.060;21.960;2023-05-10T12:56:13;17.70;36.20
68485;DHT22;55472;50.060;21.960;2023-05-10T12:58:39;17.90;36.00
68485;DHT22;55472;50.060;21.960;2023-05-10T13:01:06;18.00;35.60
68485;DHT22;55472;50.060;21.960;2023-05-10T13:03:32;18.00;34.80
68485;DHT22;55472;50.060;21.960;2023-05-10T13:05:58;17.90;35.20
68485;DHT22;55472;50.060;21.960;2023-05-10T13:08:24;18.00;35.00
68485;DHT22;55472;50.060;21.960;2023-05-10T13:10:51;17.80;34.60
68485;DHT22;55472;50.060;21.960;2023-05-10T13:13:16;17.60;34.90
68485;DHT22;55472;50.060;21.960;2023-05-10T13:15:44;17.70;35.60
68485;DHT22;55472;50.060;21.960;2023-05-10T13:18:10;17.70;35.70
68485;DHT22;55472;50.060;21.960;2023-05-10T13:20:36;17.70;34.60
68485;DHT22;55472;50.060;21.960;2023-05-10T13:23:02;17.60;35.50
68485;DHT22;55472;50.060;21.960;2023-05-10T13:25:28;17.50;35.30
68485;DHT22;55472;50.060;21.960;2023-05-10T13:27:55;17.50;34.70
68485;DHT22;55472;50.060;21.960;2023-05-10T13:30:21;17.30;34.90
68485;DHT22;55472;50.060;21.960;2023-05-10T13:32:48;17.20;35.10
68485;DHT22;55472;50.060;21.960;2023-05-10T13:35:14;17.10;35.00
68485;DHT22;55472;50.060;21.960;2023-05-10T13:37:41;17.10;35.70
68485;DHT22;55472;50.060;21.960;2023-05-10T13:40:07;17.20;35.70
68485;DHT22;55472;50.060;21.960;2023-05-10T13:42:33;17.40;35.30
68485;DHT22;55472;50.060;21.960;2023-05-10T13:45:00;17.50;34.50
68485;DHT22;55472;50.060;21.960;2023-05-10T13:47:27;17.60;34.70
68485;DHT22;55472;50.060;21.960;2023-05-10T13:49:54;17.60;34.80
68485;DHT22;55472;50.060;21.960;2023-05-10T13:52:21;17.60;34.60
68485;DHT22;55472;50.060;21.960;2023-05-10T13:54:48;17.60;35.20
68485;DHT22;55472;50.060;21.960;2023-05-10T13:57:14;17.50;35.10
68485;DHT22;55472;50.060;21.960;2023-05-10T13:59:42;17.40;34.40
68485;DHT22;55472;50.060;21.960;2023-05-10T14:02:08;17.40;35.40
68485;DHT22;55472;50.060;21.960;2023-05-10T14:04:35;17.40;35.80
68485;DHT22;55472;50.060;21.960;2023-05-10T14:07:01;17.40;34.90
68485;DHT22;55472;50.060;21.960;2023-05-10T14:09:27;17.40;35.40
68485;DHT22;55472;50.060;21.960;2023-05-10T14:11:53;17.40;34.60
68485;DHT22;55472;50.060;21.960;2023-05-10T14:14:19;17.30;34.70
68485;DHT22;55472;50.060;21.960;2023-05-10T14:16:46;17.30;34.60
68485;DHT22;55472;50.060;21.960;2023-05-10T14:19:12;17.20;33.90
68485;DHT22;55472;50.060;21.960;2023-05-10T14:21:38;17.10;35.00
68485;DHT22;55472;50.060;21.960;2023-05-10T14:24:04;17.10;35.10
68485;DHT22;55472;50.060;21.960;2023-05-10T14:26:32;17.10;34.70
68485;DHT22;55472;50.060;21.960;2023-05-10T14:29:00;17.00;33.80
68485;DHT22;55472;50.060;21.960;2023-05-10T14:31:26;16.90;34.30
68485;DHT22;55472;50.060;21.960;2023-05-10T14:33:53;16.90;35.00
68485;DHT22;55472;50.060;21.960;2023-05-10T14:36:19;16.80;34.40
68485;DHT22;55472;50.060;21.960;2023-05-10T14:38:45;16.80;34.90
68485;DHT22;55472;50.060;21.960;2023-05-10T14:41:11;16.70;34.90
68485;DHT22;55472;50.060;21.960;2023-05-10T14:43:42;16.60;34.10
68485;DHT22;55472;50.060;21.960;2023-05-10T14:46:08;16.60;34.60
68485;DHT22;55472;50.060;21.960;2023-05-10T14:48:35;16.70;35.00
68485;DHT22;55472;50.060;21.960;2023-05-10T14:51:01;16.70;35.10
68485;DHT22;55472;50.060;21.960;2023-05-10T14:53:27;16.70;33.90
68485;DHT22;55472;50.060;21.960;2023-05-10T14:55:53;16.70;34.60
68485;DHT22;55472;50.060;21.960;2023-05-10T14:58:20;16.70;34.80
68485;DHT22;55472;50.060;21.960;2023-05-10T15:00:46;16.70;34.00
68485;DHT22;55472;50.060;21.960;2023-05-10T15:03:12;16.60;33.90
68485;DHT22;55472;50.060;21.960;2023-05-10T15:05:38;16.60;35.10
68485;DHT22;55472;50.060;21.960;2023-05-10T15:08:05;16.60;34.20
68485;DHT22;55472;50.060;21.960;2023-05-10T15:10:35;16.50;33.80
68485;DHT22;55472;50.060;21.960;2023-05-10T15:13:04;16.40;35.10
68485;DHT22;55472;50.060;21.960;2023-05-10T15:15:30;16.40;34.20
68485;DHT22;55472;50.060;21.960;2023-05-10T15:17:56;16.30;34.50
68485;DHT22;55472;50.060;21.960;2023-05-10T15:20:22;16.30;34.30
68485;DHT22;55472;50.060;21.960;2023-05-10T15:22:49;16.30;34.90
68485;DHT22;55472;50.060;21.960;2023-05-10T15:25:15;16.30;34.00
68485;DHT22;55472;50.060;21.960;2023-05-10T15:27:41;16.20;34.40
68485;DHT22;55472;50.060;21.960;2023-05-10T15:30:10;16.10;34.80
68485;DHT22;55472;50.060;21.960;2023-05-10T15:32:36;16.00;34.40
68485;DHT22;55472;50.060;21.960;2023-05-10T15:35:03;16.00;34.20
68485;DHT22;55472;50.060;21.960;2023-05-10T15:37:29;15.90;34.70
68485;DHT22;55472;50.060;21.960;2023-05-10T15:39:55;15.90;35.00
68485;DHT22;55472;50.060;21.960;2023-05-10T15:42:29;15.90;34.30
68485;DHT22;55472;50.060;21.960;2023-05-10T15:44:56;15.80;34.70
68485;DHT22;55472;50.060;21.960;2023-05-10T15:47:23;15.80;35.10
68485;DHT22;55472;50.060;21.960;2023-05-10T15:49:49;15.80;34.90
68485;DHT22;55472;50.060;21.960;2023-05-10T15:52:15;15.80;34.70
68485;DHT22;55472;50.060;21.960;2023-05-10T15:54:41;15.70;35.40
68485;DHT22;55472;50.060;21.960;2023-05-10T15:57:07;15.80;35.40